createdAt,value
2022-11-28T00:01:31.686Z,100278.56
2022-11-28T00:03:58.608Z,100276.28
2022-11-28T00:06:26.807Z,100261.44
2022-11-28T00:08:53.998Z,100254.59
2022-11-28T00:11:20.728Z,100243.78
2022-11-28T00:13:47.607Z,100237.25
2022-11-28T00:16:23.324Z,100230.72
2022-11-28T00:18:51.691Z,100241.03
2022-11-28T00:21:19.343Z,100240.41
2022-11-28T00:23:47.705Z,100233.75
2022-11-28T00:26:18.525Z,100229.16
2022-11-28T00:28:45.338Z,100240.97
2022-11-28T00:31:20.791Z,100240.53
2022-11-28T00:33:48.065Z,100236.94
2022-11-28T00:36:14.809Z,100241.88
2022-11-28T00:38:42.292Z,100244.84
2022-11-28T00:41:15.035Z,100234.50
2022-11-28T00:43:43.479Z,100234.25
2022-11-28T00:46:11.838Z,100231.44
2022-11-28T00:48:38.454Z,100231.25
2022-11-28T00:51:07.901Z,100230.06
2022-11-28T00:53:34.781Z,100241.13
2022-11-28T00:56:05.687Z,100219.41
2022-11-28T00:58:33.368Z,100223.00
2022-11-28T01:01:00.532Z,100228.59
2022-11-28T01:03:27.210Z,100217.72
2022-11-28T01:05:53.958Z,100218.00
2022-11-28T01:08:20.539Z,100220.31
2022-11-28T01:10:47.187Z,100196.72
2022-11-28T01:13:13.832Z,100190.16
2022-11-28T01:15:42.293Z,100190.16
2022-11-28T01:18:09.322Z,100195.66
2022-11-28T01:20:36.021Z,100183.75
2022-11-28T01:23:02.799Z,100185.88
2022-11-28T01:25:29.624Z,100184.31
2022-11-28T01:27:56.205Z,100194.09
2022-11-28T01:30:22.778Z,100194.50
2022-11-28T01:32:49.310Z,100186.72
2022-11-28T01:35:15.961Z,100189.25
2022-11-28T01:37:42.480Z,100181.38
2022-11-28T01:40:11.676Z,100186.41
2022-11-28T01:42:38.309Z,100172.53
2022-11-28T01:45:13.100Z,100165.78
2022-11-28T01:47:40.161Z,100172.53
2022-11-28T01:50:07.767Z,100173.78
2022-11-28T01:52:37.341Z,100169.38
2022-11-28T01:55:05.444Z,100163.19
2022-11-28T01:57:32.096Z,100154.31
2022-11-28T02:00:05.130Z,100154.69
2022-11-28T02:02:47.655Z,100148.81
2022-11-28T02:05:16.046Z,100148.59
2022-11-28T02:07:44.642Z,100149.94
2022-11-28T02:10:16.644Z,100151.66
2022-11-28T02:13:04.650Z,100148.03
2022-11-28T02:15:43.352Z,100139.34
2022-11-28T02:18:35.213Z,100132.88
2022-11-28T02:21:25.435Z,100133.72
2022-11-28T02:24:19.731Z,100140.78
2022-11-28T02:27:11.751Z,100141.63
2022-11-28T02:30:09.465Z,100127.22
2022-11-28T02:32:52.361Z,100134.56
2022-11-28T02:35:40.693Z,100141.25
2022-11-28T02:38:28.380Z,100143.81
2022-11-28T02:41:00.948Z,100149.72
2022-11-28T02:43:50.383Z,100138.34
2022-11-28T02:46:25.731Z,100147.25
2022-11-28T02:49:01.477Z,100152.75
2022-11-28T02:51:45.205Z,100147.25
2022-11-28T02:54:15.461Z,100144.50
2022-11-28T02:56:50.462Z,100141.41
2022-11-28T02:59:40.417Z,100132.06
2022-11-28T03:02:13.601Z,100133.06
2022-11-28T03:04:57.711Z,100150.09
2022-11-28T03:07:57.969Z,100174.06
2022-11-28T03:10:42.862Z,100157.91
2022-11-28T03:13:30.596Z,100160.25
2022-11-28T03:16:00.188Z,100169.94
2022-11-28T03:18:33.888Z,100178.03
2022-11-28T03:21:13.240Z,100178.53
2022-11-28T03:23:48.706Z,100170.13
2022-11-28T03:26:23.487Z,100174.63
2022-11-28T03:29:12.824Z,100166.97
2022-11-28T03:31:49.761Z,100162.63
2022-11-28T03:34:21.446Z,100170.91
2022-11-28T03:36:53.933Z,100171.13
2022-11-28T03:39:26.287Z,100166.28
2022-11-28T03:42:03.120Z,100159.72
2022-11-28T03:44:40.521Z,100162.28
2022-11-28T03:47:08.433Z,100154.00
2022-11-28T03:49:42.402Z,100141.06
2022-11-28T03:52:18.442Z,100145.31
2022-11-28T03:54:59.602Z,100145.69
2022-11-28T03:57:44.977Z,100161.16
2022-11-28T04:00:12.980Z,100168.19
2022-11-28T04:02:52.721Z,100152.91
2022-11-28T04:05:42.984Z,100160.09
2022-11-28T04:08:18.247Z,100153.31
2022-11-28T04:11:14.905Z,100156.72
2022-11-28T04:13:51.094Z,100163.50
2022-11-28T04:16:36.526Z,100160.38
2022-11-28T04:19:27.798Z,100162.25
2022-11-28T04:21:57.374Z,100158.41
2022-11-28T04:24:29.529Z,100163.13
2022-11-28T04:27:01.796Z,100152.38
2022-11-28T04:29:34.402Z,100149.41
2022-11-28T04:32:02.703Z,100152.91
2022-11-28T04:34:32.679Z,100152.50
2022-11-28T04:37:05.455Z,100139.78
2022-11-28T04:39:36.787Z,100148.50
2022-11-28T04:42:13.675Z,100151.22
2022-11-28T04:44:52.491Z,100148.88
2022-11-28T04:47:19.339Z,100142.31
2022-11-28T04:49:46.098Z,100153.72
2022-11-28T04:52:21.273Z,100152.91
2022-11-28T04:55:05.071Z,100155.03
2022-11-28T04:57:41.367Z,100141.69
2022-11-28T05:00:11.737Z,100142.97
2022-11-28T05:02:40.804Z,100138.91
2022-11-28T05:05:14.289Z,100148.66
2022-11-28T05:07:40.881Z,100144.66
2022-11-28T05:10:08.482Z,100142.97
2022-11-28T05:12:35.051Z,100142.97
2022-11-28T05:15:01.801Z,100145.69
2022-11-28T05:17:28.391Z,100149.50
2022-11-28T05:19:55.215Z,100150.38
2022-11-28T05:22:22.276Z,100156.88
2022-11-28T05:24:48.823Z,100141.88
2022-11-28T05:27:15.716Z,100145.91
2022-11-28T05:29:48.096Z,100152.47
2022-11-28T05:32:18.475Z,100160.16
2022-11-28T05:34:45.063Z,100163.09
2022-11-28T05:37:11.666Z,100158.00
2022-11-28T05:39:38.317Z,100163.88
2022-11-28T05:42:05.011Z,100159.03
2022-11-28T05:44:31.646Z,100161.97
2022-11-28T05:46:58.365Z,100158.16
2022-11-28T05:49:25.707Z,100156.09
2022-11-28T05:51:52.264Z,100153.72
2022-11-28T05:54:18.967Z,100149.47
2022-11-28T05:56:45.621Z,100155.41
2022-11-28T05:59:13.626Z,100148.63
2022-11-28T06:01:40.478Z,100155.66
2022-11-28T06:04:07.222Z,100144.72
2022-11-28T06:06:35.687Z,100152.50
2022-11-28T06:09:02.794Z,100134.56
2022-11-28T06:11:31.242Z,100134.16
2022-11-28T06:13:58.017Z,100139.25
2022-11-28T06:16:27.222Z,100139.88
2022-11-28T06:19:02.934Z,100142.44
2022-11-28T06:21:30.984Z,100141.75
2022-11-28T06:23:58.809Z,100141.97
2022-11-28T06:26:27.028Z,100137.34
2022-11-28T06:28:55.482Z,100135.00
2022-11-28T06:31:28.493Z,100140.31
2022-11-28T06:33:56.255Z,100145.81
2022-11-28T06:36:24.653Z,100133.91
2022-11-28T06:38:51.508Z,100136.25
2022-11-28T06:41:19.868Z,100143.66
2022-11-28T06:43:46.433Z,100125.91
2022-11-28T06:46:16.683Z,100129.88
2022-11-28T06:48:44.595Z,100130.66
2022-11-28T06:51:11.877Z,100134.91
2022-11-28T06:53:38.558Z,100124.69
2022-11-28T06:56:13.950Z,100129.97
2022-11-28T06:58:41.114Z,100130.84
2022-11-28T07:01:10.431Z,100134.69
2022-11-28T07:03:38.381Z,100133.63
2022-11-28T07:06:05.780Z,100140.38
2022-11-28T07:08:32.710Z,100139.34
2022-11-28T07:11:07.697Z,100141.88
2022-11-28T07:13:34.236Z,100140.63
2022-11-28T07:16:00.743Z,100147.16
2022-11-28T07:18:27.383Z,100150.94
2022-11-28T07:20:53.980Z,100141.84
2022-11-28T07:23:20.563Z,100140.56
2022-11-28T07:25:47.106Z,100151.59
2022-11-28T07:28:13.641Z,100152.03
2022-11-28T07:30:41.155Z,100153.72
2022-11-28T07:33:08.127Z,100153.72
2022-11-28T07:35:34.668Z,100163.41
2022-11-28T07:38:01.389Z,100156.41
2022-11-28T07:40:28.159Z,100158.59
2022-11-28T07:42:54.801Z,100165.75
2022-11-28T07:45:22.898Z,100168.13
2022-11-28T07:47:49.574Z,100163.91
2022-11-28T07:50:16.142Z,100167.53
2022-11-28T07:52:42.684Z,100161.50
2022-11-28T07:55:09.373Z,100155.53
2022-11-28T07:57:36.074Z,100169.91
2022-11-28T08:00:04.682Z,100157.81
2022-11-28T08:02:39.283Z,100164.22
2022-11-28T08:05:06.359Z,100165.88
2022-11-28T08:07:33.152Z,100160.97
2022-11-28T08:09:59.706Z,100160.69
2022-11-28T08:12:26.585Z,100162.19
2022-11-28T08:14:53.346Z,100172.84
2022-11-28T08:17:20.005Z,100169.16
2022-11-28T08:19:46.648Z,100172.94
2022-11-28T08:22:13.350Z,100166.84
2022-11-28T08:24:40.203Z,100170.44
2022-11-28T08:27:07.039Z,100178.28
2022-11-28T08:29:34.021Z,100175.09
2022-11-28T08:32:00.723Z,100170.03
2022-11-28T08:34:27.256Z,100173.19
2022-11-28T08:36:54.280Z,100170.88
2022-11-28T08:39:25.052Z,100176.81
2022-11-28T08:41:59.603Z,100173.38
2022-11-28T08:44:27.516Z,100171.31
2022-11-28T08:46:54.683Z,100168.38
2022-11-28T08:49:21.434Z,100176.41
2022-11-28T08:51:47.964Z,100172.19
2022-11-28T08:54:15.104Z,100172.78
2022-11-28T08:56:41.696Z,100176.00
2022-11-28T08:59:09.469Z,100179.41
2022-11-28T09:01:36.193Z,100180.41
2022-11-28T09:04:04.112Z,100181.66
2022-11-28T09:06:30.906Z,100181.72
2022-11-28T09:08:57.945Z,100182.31
2022-11-28T09:11:24.545Z,100179.38
2022-11-28T09:13:51.229Z,100187.59
2022-11-28T09:16:18.328Z,100179.34
2022-11-28T09:18:45.103Z,100178.91
2022-11-28T09:21:13.900Z,100190.59
2022-11-28T09:23:42.087Z,100194.16
2022-11-28T09:26:10.733Z,100188.91
2022-11-28T09:28:37.344Z,100192.97
2022-11-28T09:31:05.846Z,100188.63
2022-11-28T09:33:33.441Z,100190.97
2022-11-28T09:36:06.947Z,100180.63
2022-11-28T09:38:34.439Z,100198.44
2022-11-28T09:41:02.548Z,100200.81
2022-11-28T09:43:36.291Z,100195.06
2022-11-28T09:46:08.275Z,100197.41
2022-11-28T09:48:46.712Z,100195.50
2022-11-28T09:51:24.196Z,100196.34
2022-11-28T09:54:03.842Z,100202.50
2022-11-28T09:56:30.659Z,100201.59
2022-11-28T09:59:03.020Z,100205.66
2022-11-28T10:02:04.037Z,100205.25
2022-11-28T10:05:05.244Z,100206.31
2022-11-28T10:08:14.146Z,100202.09
2022-11-28T10:10:55.094Z,100203.91
2022-11-28T10:14:05.992Z,100203.28
2022-11-28T10:16:41.490Z,100208.78
2022-11-28T10:19:46.007Z,100194.25
2022-11-28T10:22:07.450Z,100202.06
2022-11-28T10:24:39.353Z,100200.78
2022-11-28T10:27:06.783Z,100197.78
2022-11-28T10:29:39.537Z,100201.81
2022-11-28T10:32:06.678Z,100197.63
2022-11-28T10:34:45.357Z,100203.13
2022-11-28T10:37:27.994Z,100198.06
2022-11-28T10:39:56.081Z,100196.75
2022-11-28T10:42:35.286Z,100193.38
2022-11-28T10:45:11.028Z,100192.72
2022-11-28T10:48:07.537Z,100195.88
2022-11-28T10:50:55.628Z,100187.84
2022-11-28T10:53:40.584Z,100196.13
2022-11-28T10:56:39.217Z,100194.44
2022-11-28T10:59:36.905Z,100190.78
2022-11-28T11:02:32.921Z,100192.66
2022-11-28T11:04:59.919Z,100188.69
2022-11-28T11:07:32.137Z,100186.41
2022-11-28T11:10:17.293Z,100190.00
2022-11-28T11:12:44.814Z,100195.06
2022-11-28T11:15:25.172Z,100203.75
2022-11-28T11:17:52.067Z,100195.13
2022-11-28T11:20:31.206Z,100191.66
2022-11-28T11:23:01.372Z,100189.16
2022-11-28T11:25:32.689Z,100189.59
2022-11-28T11:28:03.347Z,100189.16
2022-11-28T11:30:33.956Z,100184.47
2022-11-28T11:33:03.789Z,100189.34
2022-11-28T11:35:35.547Z,100185.34
2022-11-28T11:38:17.286Z,100177.13
2022-11-28T11:40:44.718Z,100187.06
2022-11-28T11:43:30.964Z,100187.47
2022-11-28T11:46:12.556Z,100185.56
2022-11-28T11:48:40.379Z,100191.50
2022-11-28T11:51:28.841Z,100191.50
2022-11-28T11:54:28.335Z,100192.56
2022-11-28T11:57:11.191Z,100194.22
2022-11-28T11:59:50.631Z,100196.34
2022-11-28T12:02:43.293Z,100191.91
2022-11-28T12:05:18.463Z,100199.09
2022-11-28T12:08:01.577Z,100195.28
2022-11-28T12:10:46.340Z,100194.22
2022-11-28T12:13:19.970Z,100195.28
2022-11-28T12:16:13.548Z,100199.50
2022-11-28T12:18:59.407Z,100199.66
2022-11-28T12:21:40.093Z,100200.59
2022-11-28T12:24:12.318Z,100207.75
2022-11-28T12:27:06.480Z,100204.13
2022-11-28T12:29:39.398Z,100214.69
2022-11-28T12:32:28.670Z,100219.56
2022-11-28T12:35:17.069Z,100221.69
2022-11-28T12:41:03.986Z,100208.19
2022-11-28T12:43:46.540Z,100210.41
2022-11-28T12:46:41.995Z,100203.91
2022-11-28T12:49:19.733Z,100195.88
2022-11-28T12:52:00.764Z,100200.94
2022-11-28T12:54:39.533Z,100205.22
2022-11-28T12:57:06.210Z,100204.50
2022-11-28T12:59:54.094Z,100204.34
2022-11-28T13:02:41.867Z,100206.81
2022-11-28T13:05:30.639Z,100208.97
2022-11-28T13:08:22.935Z,100202.22
2022-11-28T13:11:01.678Z,100211.91
2022-11-28T13:13:42.871Z,100212.34
2022-11-28T13:16:13.083Z,100204.34
2022-11-28T13:18:44.291Z,100204.38
2022-11-28T13:21:43.349Z,100203.72
2022-11-28T13:24:16.810Z,100208.19
2022-11-28T13:26:46.173Z,100204.72
2022-11-28T13:29:38.690Z,100205.19
2022-11-28T13:32:15.254Z,100208.59
2022-11-28T13:34:42.350Z,100211.56
2022-11-28T13:40:26.668Z,100213.69
2022-11-28T13:43:14.131Z,100207.34
2022-11-28T13:45:43.542Z,100212.00
2022-11-28T13:51:31.500Z,100215.13
2022-11-28T13:54:16.977Z,100218.75
2022-11-28T13:56:46.334Z,100223.19
2022-11-28T13:59:25.272Z,100223.22
2022-11-28T14:02:01.468Z,100230.59
2022-11-28T14:04:29.775Z,100227.19
2022-11-28T14:07:06.960Z,100232.06
2022-11-28T14:09:47.482Z,100231.69
2022-11-28T14:12:25.518Z,100232.34
2022-11-28T14:15:01.480Z,100224.28
2022-11-28T14:17:50.998Z,100224.28
2022-11-28T14:20:37.322Z,100223.84
2022-11-28T14:23:23.290Z,100222.59
2022-11-28T14:25:51.150Z,100229.19
2022-11-28T14:28:38.081Z,100230.03
2022-11-28T14:32:06.694Z,100239.13
2022-11-28T14:34:46.244Z,100236.59
2022-11-28T14:37:19.089Z,100240.34
2022-11-28T14:39:50.524Z,100249.25
2022-11-28T14:42:44.152Z,100243.53
2022-11-28T14:45:43.256Z,100240.59
2022-11-28T14:48:28.444Z,100254.34
2022-11-28T14:51:01.409Z,100252.63
2022-11-28T14:53:45.418Z,100254.81
2022-11-28T14:56:15.116Z,100260.72
2022-11-28T14:58:50.331Z,100253.06
2022-11-28T15:01:42.326Z,100253.94
2022-11-28T15:04:34.153Z,100259.44
2022-11-28T15:07:03.197Z,100255.97
2022-11-28T15:09:48.977Z,100260.25
2022-11-28T15:12:37.840Z,100256.22
2022-11-28T15:15:07.909Z,100256.00
2022-11-28T15:17:35.189Z,100263.63
2022-11-28T15:20:08.967Z,100254.69
2022-11-28T15:22:43.362Z,100266.38
2022-11-28T15:25:35.496Z,100266.97
2022-11-28T15:28:19.366Z,100276.13
2022-11-28T15:30:51.408Z,100277.19
2022-11-28T15:33:20.035Z,100280.75
2022-11-28T15:36:10.800Z,100274.63
2022-11-28T15:38:41.267Z,100274.44
2022-11-28T15:41:08.098Z,100278.69
2022-11-28T15:43:37.628Z,100285.22
2022-11-28T15:46:05.863Z,100276.81
2022-11-28T15:48:39.377Z,100283.63
2022-11-28T15:51:08.425Z,100282.00
2022-11-28T15:53:42.076Z,100277.28
2022-11-28T15:56:14.888Z,100276.22
2022-11-28T15:58:43.715Z,100278.94
2022-11-28T16:01:19.692Z,100279.22
2022-11-28T16:03:57.046Z,100279.66
2022-11-28T16:06:26.640Z,100282.38
2022-11-28T16:09:03.921Z,100279.81
2022-11-28T16:11:31.653Z,100287.66
2022-11-28T16:14:01.346Z,100288.72
2022-11-28T16:16:31.368Z,100286.59
2022-11-28T16:19:01.802Z,100302.06
2022-11-28T16:21:34.922Z,100304.16
2022-11-28T16:24:03.310Z,100300.78
2022-11-28T16:26:34.163Z,100298.22
2022-11-28T16:29:06.833Z,100303.56
2022-11-28T16:31:34.731Z,100307.31
2022-11-28T16:34:02.635Z,100306.69
2022-11-28T16:36:29.883Z,100304.38
2022-11-28T16:39:23.629Z,100312.41
2022-11-28T16:42:06.333Z,100312.41
2022-11-28T16:44:33.734Z,100315.59
2022-11-28T16:47:00.647Z,100317.91
2022-11-28T16:49:47.900Z,100316.25
2022-11-28T16:52:24.082Z,100316.63
2022-11-28T16:54:52.248Z,100320.00
2022-11-28T16:57:20.160Z,100321.06
2022-11-28T16:59:48.168Z,100307.94
2022-11-28T17:02:17.764Z,100321.94
2022-11-28T17:04:45.964Z,100313.22
2022-11-28T17:07:16.317Z,100315.00
2022-11-28T17:09:44.634Z,100315.00
2022-11-28T17:12:32.404Z,100322.34
2022-11-28T17:14:59.276Z,100322.84
2022-11-28T17:17:27.373Z,100324.16
2022-11-28T17:19:54.135Z,100324.31
2022-11-28T17:22:29.850Z,100322.59
2022-11-28T17:25:00.129Z,100321.94
2022-11-28T17:27:27.929Z,100338.94
2022-11-28T17:29:54.913Z,100333.22
2022-11-28T17:32:22.845Z,100333.25
2022-11-28T17:34:49.418Z,100334.75
2022-11-28T17:37:16.534Z,100336.63
2022-11-28T17:40:01.879Z,100338.94
2022-11-28T17:42:30.535Z,100345.25
2022-11-28T17:44:57.512Z,100340.41
2022-11-28T17:47:24.939Z,100342.16
2022-11-28T17:49:52.206Z,100347.19
2022-11-28T17:52:20.364Z,100345.50
2022-11-28T17:54:47.050Z,100344.03
2022-11-28T17:57:14.115Z,100349.81
2022-11-28T17:59:40.640Z,100346.31
2022-11-28T18:02:07.478Z,100349.69
2022-11-28T18:04:34.818Z,100353.09
2022-11-28T18:07:01.942Z,100353.09
2022-11-28T18:09:29.159Z,100346.31
2022-11-28T18:11:55.731Z,100344.63
2022-11-28T18:14:22.216Z,100348.25
2022-11-28T18:16:49.279Z,100344.63
2022-11-28T18:19:15.971Z,100351.81
2022-11-28T18:21:42.630Z,100341.88
2022-11-28T18:24:09.281Z,100348.19
2022-11-28T18:26:37.579Z,100350.91
2022-11-28T18:29:04.600Z,100354.97
2022-11-28T18:31:32.324Z,100356.25
2022-11-28T18:34:02.507Z,100360.25
2022-11-28T18:36:33.931Z,100361.97
2022-11-28T18:39:04.389Z,100350.56
2022-11-28T18:41:31.623Z,100352.03
2022-11-28T18:44:01.334Z,100359.44
2022-11-28T18:46:29.759Z,100361.53
2022-11-28T18:48:57.367Z,100371.66
2022-11-28T18:51:29.982Z,100369.63
2022-11-28T18:53:57.782Z,100370.47
2022-11-28T18:56:27.188Z,100371.13
2022-11-28T18:58:54.294Z,100381.47
2022-11-28T19:01:22.608Z,100383.81
2022-11-28T19:03:54.496Z,100380.63
2022-11-28T19:06:21.721Z,100386.13
2022-11-28T19:08:52.504Z,100375.31
2022-11-28T19:11:20.161Z,100381.81
2022-11-28T19:13:48.138Z,100397.03
2022-11-28T19:16:17.956Z,100391.94
2022-11-28T19:18:45.523Z,100395.31
2022-11-28T19:21:15.656Z,100388.41
2022-11-28T19:23:42.842Z,100391.94
2022-11-28T19:26:12.367Z,100393.19
2022-11-28T19:28:40.885Z,100392.75
2022-11-28T19:31:17.216Z,100401.50
2022-11-28T19:33:44.403Z,100396.75
2022-11-28T19:36:13.919Z,100398.88
2022-11-28T19:38:41.629Z,100395.31
2022-11-28T19:41:10.242Z,100400.13
2022-11-28T19:43:37.161Z,100409.00
2022-11-28T19:46:06.315Z,100397.16
2022-11-28T19:48:35.015Z,100409.88
2022-11-28T19:51:03.786Z,100409.88
2022-11-28T19:53:32.099Z,100401.81
2022-11-28T19:56:03.820Z,100410.06
2022-11-28T19:58:31.494Z,100407.75
2022-11-28T20:01:18.661Z,100411.28
2022-11-28T20:03:47.755Z,100410.75
2022-11-28T20:06:19.154Z,100408.00
2022-11-28T20:08:46.966Z,100415.16
2022-11-28T20:11:17.181Z,100421.38
2022-11-28T20:13:44.435Z,100418.22
2022-11-28T20:16:12.713Z,100412.41
2022-11-28T20:18:41.551Z,100423.22
2022-11-28T20:21:14.817Z,100425.72
2022-11-28T20:23:47.223Z,100423.88
2022-11-28T20:26:14.865Z,100424.47
2022-11-28T20:28:42.711Z,100427.69
2022-11-28T20:31:37.038Z,100428.97
2022-11-28T20:34:06.125Z,100427.91
2022-11-28T20:36:33.524Z,100423.69
2022-11-28T20:39:01.414Z,100435.00
2022-11-28T20:41:29.188Z,100441.16
2022-11-28T20:43:56.052Z,100439.28
2022-11-28T20:46:30.037Z,100445.75
2022-11-28T20:49:03.148Z,100449.19
2022-11-28T20:51:32.639Z,100451.88
2022-11-28T20:54:00.409Z,100443.38
2022-11-28T20:56:29.848Z,100450.34
2022-11-28T20:58:59.146Z,100449.41
2022-11-28T21:01:27.916Z,100453.44
2022-11-28T21:03:54.538Z,100460.81
2022-11-28T21:06:21.242Z,100452.00
2022-11-28T21:08:48.043Z,100460.22
2022-11-28T21:11:30.972Z,100461.91
2022-11-28T21:14:04.871Z,100466.81
2022-11-28T21:16:33.078Z,100464.69
2022-11-28T21:19:04.494Z,100464.66
2022-11-28T21:21:32.714Z,100463.63
2022-11-28T21:24:03.095Z,100463.94
2022-11-28T21:26:33.070Z,100458.78
2022-11-28T21:29:05.901Z,100472.31
2022-11-28T21:31:35.030Z,100464.78
2022-11-28T21:34:02.099Z,100474.31
2022-11-28T21:36:30.500Z,100470.06
2022-11-28T21:39:00.670Z,100473.00
2022-11-28T21:41:30.041Z,100466.03
2022-11-28T21:43:58.474Z,100474.69
2022-11-28T21:46:26.381Z,100483.94
2022-11-28T21:48:53.690Z,100485.75
2022-11-28T21:51:22.153Z,100482.06
2022-11-28T21:53:49.295Z,100474.41
2022-11-28T21:56:15.848Z,100480.63
2022-11-28T21:58:42.897Z,100483.34
2022-11-28T22:01:11.865Z,100486.88
2022-11-28T22:03:39.687Z,100488.41
2022-11-28T22:06:22.670Z,100489.25
2022-11-28T22:08:50.223Z,100492.03
2022-11-28T22:11:17.710Z,100486.50
2022-11-28T22:13:45.852Z,100494.09
2022-11-28T22:16:16.648Z,100495.38
2022-11-28T22:18:44.940Z,100493.53
2022-11-28T22:21:50.054Z,100492.97
2022-11-28T22:23:59.466Z,100505.31
2022-11-28T22:26:26.156Z,100502.34
2022-11-28T22:28:53.744Z,100502.72
2022-11-28T22:31:22.561Z,100502.72
2022-11-28T22:33:50.469Z,100505.09
2022-11-28T22:36:19.711Z,100508.75
2022-11-28T22:38:48.316Z,100506.22
2022-11-28T22:41:26.209Z,100510.31
2022-11-28T22:43:57.233Z,100514.34
2022-11-28T22:46:24.422Z,100521.31
2022-11-28T22:48:51.869Z,100522.81
2022-11-28T22:51:21.425Z,100519.22
2022-11-28T22:53:51.793Z,100519.22
2022-11-28T22:56:18.402Z,100526.97
2022-11-28T22:58:45.427Z,100519.50
2022-11-28T23:01:17.100Z,100531.00
2022-11-28T23:03:44.871Z,100528.09
2022-11-28T23:06:17.536Z,100542.53
2022-11-28T23:08:45.098Z,100536.25
2022-11-28T23:11:17.970Z,100529.50
2022-11-28T23:13:47.797Z,100537.94
2022-11-28T23:16:16.387Z,100533.72
2022-11-28T23:18:46.555Z,100531.16
2022-11-28T23:21:14.889Z,100544.22
2022-11-28T23:23:43.843Z,100543.28
2022-11-28T23:26:13.440Z,100548.03
2022-11-28T23:28:40.557Z,100550.06
2022-11-28T23:31:16.390Z,100558.13
2022-11-28T23:33:44.427Z,100560.47
2022-11-28T23:36:24.432Z,100553.28
2022-11-28T23:38:54.417Z,100552.78
2022-11-28T23:41:21.514Z,100553.84
2022-11-28T23:43:48.518Z,100558.22
2022-11-28T23:46:16.064Z,100563.16
2022-11-28T23:48:43.707Z,100554.81
2022-11-28T23:51:12.744Z,100556.91
2022-11-28T23:53:39.932Z,100548.00
2022-11-28T23:56:20.931Z,100556.78
2022-11-28T23:58:47.843Z,100558.22
